createdAt,value
2018-03-07T00:01:47.468Z,137.77
2018-03-07T00:04:13.211Z,141.57
2018-03-07T00:06:38.945Z,140.23
2018-03-07T00:09:04.689Z,142.87
2018-03-07T00:11:30.411Z,143.77
2018-03-07T00:13:56.142Z,133.83
2018-03-07T00:16:21.879Z,148.93
2018-03-07T00:18:47.606Z,146.10
2018-03-07T00:21:13.330Z,141.37
2018-03-07T00:23:39.079Z,142.30
2018-03-07T00:26:04.806Z,135.40
2018-03-07T00:28:30.557Z,143.57
2018-03-07T00:30:56.300Z,140.90
2018-03-07T00:33:22.025Z,142.73
2018-03-07T00:35:47.745Z,139.90
2018-03-07T00:38:13.465Z,141.67
2018-03-07T00:40:39.202Z,141.83
2018-03-07T00:43:04.922Z,138.40
2018-03-07T00:45:30.678Z,142.57
2018-03-07T00:47:56.405Z,146.73
2018-03-07T00:50:22.122Z,134.67
2018-03-07T00:52:47.866Z,135.83
2018-03-07T00:55:13.597Z,137.77
2018-03-07T00:57:39.326Z,141.67
2018-03-07T01:00:05.052Z,146.70
2018-03-07T01:02:30.768Z,138.83
2018-03-07T01:04:56.492Z,140.67
2018-03-07T01:07:22.209Z,146.70
2018-03-07T01:09:48.095Z,144.70
2018-03-07T01:12:13.833Z,144.13
2018-03-07T01:14:39.550Z,144.27
2018-03-07T01:17:05.282Z,140.43
2018-03-07T01:19:31.018Z,140.73
2018-03-07T01:21:56.746Z,135.27
2018-03-07T01:24:22.466Z,137.97
2018-03-07T01:26:48.198Z,138.03
2018-03-07T01:29:13.929Z,137.70
2018-03-07T01:31:39.657Z,137.73
2018-03-07T01:34:05.385Z,137.87
2018-03-07T01:36:31.125Z,141.10
2018-03-07T01:38:56.854Z,131.63
2018-03-07T01:41:22.589Z,134.73
2018-03-07T01:43:48.312Z,140.10
2018-03-07T01:46:14.045Z,136.57
2018-03-07T01:48:39.769Z,137.23
2018-03-07T01:51:05.499Z,133.63
2018-03-07T01:53:31.226Z,131.50
2018-03-07T01:55:56.982Z,136.73
2018-03-07T01:58:22.721Z,139.07
2018-03-07T02:00:48.441Z,135.27
2018-03-07T02:03:14.178Z,137.43
2018-03-07T02:05:39.902Z,133.30
2018-03-07T02:08:05.662Z,136.30
2018-03-07T02:10:33.190Z,135.57
2018-03-07T02:12:58.930Z,132.70
2018-03-07T02:15:24.655Z,138.13
2018-03-07T02:17:50.398Z,141.03
2018-03-07T02:20:16.116Z,138.83
2018-03-07T02:22:41.844Z,140.67
2018-03-07T02:25:07.570Z,136.97
2018-03-07T02:27:33.293Z,139.63
2018-03-07T02:29:59.010Z,143.90
2018-03-07T02:32:24.740Z,136.10
2018-03-07T02:34:50.454Z,136.90
2018-03-07T02:37:16.186Z,139.10
2018-03-07T02:39:41.910Z,140.10
2018-03-07T02:42:07.656Z,143.20
2018-03-07T02:44:33.393Z,142.00
2018-03-07T02:46:59.113Z,140.97
2018-03-07T02:49:24.856Z,140.93
2018-03-07T02:51:50.585Z,142.93
2018-03-07T02:54:16.318Z,138.47
2018-03-07T02:56:42.039Z,144.00
2018-03-07T02:59:07.770Z,141.03
2018-03-07T03:01:33.491Z,143.10
2018-03-07T03:03:59.233Z,143.47
2018-03-07T03:06:24.950Z,142.20
2018-03-07T03:08:50.682Z,143.53
2018-03-07T03:11:16.404Z,140.83
2018-03-07T03:13:42.158Z,142.53
2018-03-07T03:16:07.885Z,141.27
2018-03-07T03:18:33.613Z,142.47
2018-03-07T03:20:59.342Z,144.43
2018-03-07T03:23:25.077Z,146.87
2018-03-07T03:25:50.794Z,144.37
2018-03-07T03:28:16.534Z,150.53
2018-03-07T03:30:42.251Z,145.37
2018-03-07T03:33:08.000Z,149.90
2018-03-07T03:35:33.735Z,154.37
2018-03-07T03:37:59.457Z,142.13
2018-03-07T03:40:25.198Z,145.10
2018-03-07T03:42:50.929Z,147.50
2018-03-07T03:45:16.662Z,146.57
2018-03-07T03:47:42.390Z,162.57
2018-03-07T03:50:08.157Z,150.27
2018-03-07T03:52:33.888Z,149.73
2018-03-07T03:54:59.626Z,154.00
2018-03-07T03:57:25.337Z,152.73
2018-03-07T03:59:51.073Z,147.53
2018-03-07T04:02:16.799Z,149.90
2018-03-07T04:04:42.518Z,156.77
2018-03-07T04:07:08.241Z,156.20
2018-03-07T04:09:33.969Z,153.13
2018-03-07T04:11:59.706Z,149.43
2018-03-07T04:14:25.450Z,155.03
2018-03-07T04:16:51.190Z,152.57
2018-03-07T04:19:16.950Z,160.77
2018-03-07T04:21:42.691Z,151.30
2018-03-07T04:24:08.431Z,151.90
2018-03-07T04:26:34.166Z,152.57
2018-03-07T04:28:59.922Z,158.47
2018-03-07T04:31:25.665Z,155.13
2018-03-07T04:33:51.410Z,150.00
2018-03-07T04:36:17.157Z,150.27
2018-03-07T04:38:42.889Z,159.97
2018-03-07T04:41:08.629Z,156.10
2018-03-07T04:43:34.353Z,150.80
2018-03-07T04:46:00.088Z,161.57
2018-03-07T04:48:25.822Z,161.07
2018-03-07T04:50:51.566Z,157.03
2018-03-07T04:53:17.306Z,160.40
2018-03-07T04:55:43.054Z,162.87
2018-03-07T04:58:08.794Z,156.07
2018-03-07T05:00:34.535Z,161.30
2018-03-07T05:03:00.291Z,159.67
2018-03-07T05:05:26.042Z,168.87
2018-03-07T05:07:51.779Z,166.83
2018-03-07T05:10:17.533Z,162.17
2018-03-07T05:12:43.279Z,164.47
2018-03-07T05:15:09.005Z,162.47
2018-03-07T05:17:34.714Z,166.63
2018-03-07T05:20:00.438Z,172.33
2018-03-07T05:22:26.162Z,170.03
2018-03-07T05:24:51.877Z,160.73
2018-03-07T05:27:17.609Z,172.20
2018-03-07T05:29:43.322Z,169.07
2018-03-07T05:32:09.061Z,173.27
2018-03-07T05:34:34.774Z,176.10
2018-03-07T05:37:00.509Z,163.83
2018-03-07T05:39:26.233Z,172.33
2018-03-07T05:41:51.959Z,165.23
2018-03-07T05:44:17.686Z,170.40
2018-03-07T05:46:43.442Z,171.40
2018-03-07T05:49:09.158Z,174.57
2018-03-07T05:51:34.893Z,175.90
2018-03-07T05:54:00.605Z,176.13
2018-03-07T05:56:26.334Z,168.60
2018-03-07T05:58:52.045Z,181.00
2018-03-07T06:01:17.769Z,174.27
2018-03-07T06:03:43.482Z,173.80
2018-03-07T06:06:09.214Z,175.30
2018-03-07T06:08:34.934Z,190.50
2018-03-07T06:11:00.648Z,175.00
2018-03-07T06:13:26.385Z,184.80
2018-03-07T06:15:52.109Z,181.43
2018-03-07T06:18:17.835Z,176.80
2018-03-07T06:20:43.554Z,171.87
2018-03-07T06:23:09.278Z,184.50
2018-03-07T06:25:34.987Z,180.20
2018-03-07T06:28:00.706Z,165.77
2018-03-07T06:30:26.426Z,179.20
2018-03-07T06:32:52.149Z,181.20
2018-03-07T06:35:17.864Z,183.13
2018-03-07T06:37:43.594Z,180.00
2018-03-07T06:40:09.318Z,191.73
2018-03-07T06:42:35.054Z,181.17
2018-03-07T06:45:00.787Z,188.50
2018-03-07T06:47:26.522Z,184.53
2018-03-07T06:49:52.242Z,180.63
2018-03-07T06:52:17.969Z,187.53
2018-03-07T06:54:43.690Z,186.03
2018-03-07T06:57:09.422Z,185.33
2018-03-07T06:59:35.146Z,180.83
2018-03-07T07:02:00.886Z,178.93
2018-03-07T07:04:26.619Z,198.93
2018-03-07T07:06:52.366Z,182.90
2018-03-07T07:09:18.091Z,194.50
2018-03-07T07:11:43.814Z,193.60
2018-03-07T07:14:09.557Z,200.07
2018-03-07T07:16:35.295Z,196.67
2018-03-07T07:19:01.026Z,205.53
2018-03-07T07:21:26.758Z,194.60
2018-03-07T07:23:52.494Z,197.73
2018-03-07T07:26:18.219Z,202.87
2018-03-07T07:28:43.946Z,206.90
2018-03-07T07:31:09.671Z,214.77
2018-03-07T07:33:35.399Z,221.33
2018-03-07T07:36:01.127Z,225.13
2018-03-07T07:38:26.866Z,229.73
2018-03-07T07:40:52.586Z,233.60
2018-03-07T07:43:18.328Z,228.57
2018-03-07T07:45:44.046Z,223.07
2018-03-07T07:48:09.777Z,218.67
2018-03-07T07:50:35.505Z,234.27
2018-03-07T07:53:01.237Z,218.63
2018-03-07T07:55:26.977Z,230.13
2018-03-07T07:57:52.711Z,226.07
2018-03-07T08:00:18.434Z,233.43
2018-03-07T08:02:44.149Z,243.50
2018-03-07T08:05:09.886Z,235.23
2018-03-07T08:07:35.602Z,243.83
2018-03-07T08:10:01.339Z,250.87
2018-03-07T08:12:27.080Z,235.47
2018-03-07T08:14:52.821Z,243.37
2018-03-07T08:17:18.545Z,245.47
2018-03-07T08:19:44.270Z,253.30
2018-03-07T08:22:09.986Z,240.57
2018-03-07T08:24:35.709Z,230.37
2018-03-07T08:27:01.421Z,267.53
2018-03-07T08:29:27.186Z,254.23
2018-03-07T08:31:52.904Z,258.90
2018-03-07T08:34:19.425Z,271.30
2018-03-07T08:36:45.165Z,243.83
2018-03-07T08:39:10.882Z,252.57
2018-03-07T08:41:36.622Z,268.87
2018-03-07T08:44:02.368Z,271.60
2018-03-07T08:46:28.091Z,267.67
2018-03-07T08:48:53.815Z,270.77
2018-03-07T08:51:19.569Z,262.90
2018-03-07T08:53:45.293Z,248.57
2018-03-07T08:56:11.018Z,248.07
2018-03-07T08:58:36.738Z,244.93
2018-03-07T09:01:02.486Z,260.17
2018-03-07T09:03:28.227Z,232.60
2018-03-07T09:05:53.954Z,245.70
2018-03-07T09:08:19.670Z,266.43
2018-03-07T09:10:45.403Z,249.60
2018-03-07T09:13:11.132Z,251.90
2018-03-07T09:15:36.869Z,257.83
2018-03-07T09:18:02.590Z,259.47
2018-03-07T09:20:28.333Z,269.47
2018-03-07T09:22:54.054Z,243.70
2018-03-07T09:25:19.790Z,250.97
2018-03-07T09:27:45.518Z,235.77
2018-03-07T09:30:11.247Z,236.20
2018-03-07T09:32:36.969Z,243.30
2018-03-07T09:35:02.750Z,248.03
2018-03-07T09:37:28.436Z,265.70
2018-03-07T09:39:54.163Z,257.53
2018-03-07T09:42:19.898Z,284.50
2018-03-07T09:44:45.653Z,234.23
2018-03-07T09:47:11.390Z,244.73
2018-03-07T09:49:37.101Z,233.17
2018-03-07T09:52:02.842Z,252.27
2018-03-07T09:54:28.566Z,248.37
2018-03-07T09:56:54.295Z,229.13
2018-03-07T09:59:20.025Z,219.53
2018-03-07T10:01:45.761Z,212.63
2018-03-07T10:04:11.485Z,245.83
2018-03-07T10:06:37.231Z,247.37
2018-03-07T10:09:03.010Z,264.83
2018-03-07T10:11:28.747Z,259.90
2018-03-07T10:13:54.485Z,235.50
2018-03-07T10:16:20.225Z,235.13
2018-03-07T10:18:45.946Z,267.93
2018-03-07T10:21:11.666Z,246.13
2018-03-07T10:23:37.409Z,223.60
2018-03-07T10:26:03.135Z,257.27
2018-03-07T10:28:28.872Z,237.93
2018-03-07T10:30:54.591Z,241.37
2018-03-07T10:33:26.336Z,266.40
2018-03-07T10:35:52.054Z,271.48
2018-03-07T10:38:17.798Z,256.40
2018-03-07T10:40:43.535Z,299.77
2018-03-07T10:43:09.267Z,249.43
2018-03-07T10:45:35.005Z,245.03
2018-03-07T10:48:00.738Z,229.20
2018-03-07T10:50:26.458Z,228.87
2018-03-07T10:52:52.194Z,248.60
2018-03-07T10:55:17.923Z,258.40
2018-03-07T10:57:43.696Z,238.77
2018-03-07T11:00:09.438Z,217.77
2018-03-07T11:02:35.192Z,221.10
2018-03-07T11:05:00.895Z,244.53
2018-03-07T11:07:26.614Z,255.03
2018-03-07T11:09:52.361Z,270.03
2018-03-07T11:12:18.079Z,279.57
2018-03-07T11:14:43.805Z,215.20
2018-03-07T11:17:09.522Z,226.23
2018-03-07T11:19:35.253Z,232.20
2018-03-07T11:22:00.982Z,204.63
2018-03-07T11:24:26.718Z,212.43
2018-03-07T11:26:52.463Z,215.77
2018-03-07T11:29:18.214Z,213.47
2018-03-07T11:31:43.953Z,222.30
2018-03-07T11:34:09.695Z,218.67
2018-03-07T11:36:35.421Z,214.63
2018-03-07T11:39:01.158Z,263.50
2018-03-07T11:41:26.894Z,251.10
2018-03-07T11:43:52.650Z,228.07
2018-03-07T11:46:18.378Z,229.87
2018-03-07T11:48:44.093Z,236.93
2018-03-07T11:51:09.805Z,235.93
2018-03-07T11:53:35.533Z,182.10
2018-03-07T11:56:01.261Z,231.87
2018-03-07T11:58:26.986Z,228.33
2018-03-07T12:00:52.710Z,226.23
2018-03-07T12:03:18.429Z,197.97
2018-03-07T12:05:44.171Z,195.03
2018-03-07T12:08:09.886Z,211.43
2018-03-07T12:10:35.627Z,196.77
2018-03-07T12:13:01.362Z,203.97
2018-03-07T12:15:27.122Z,194.40
2018-03-07T12:17:52.850Z,180.07
2018-03-07T12:20:18.591Z,206.70
2018-03-07T12:22:44.326Z,186.67
2018-03-07T12:25:10.056Z,177.17
2018-03-07T12:27:35.819Z,184.80
2018-03-07T12:30:01.555Z,186.80
2018-03-07T12:32:27.281Z,187.70
2018-03-07T12:34:53.026Z,184.90
2018-03-07T12:37:18.741Z,166.27
2018-03-07T12:39:44.473Z,185.23
2018-03-07T12:42:10.214Z,190.67
2018-03-07T12:44:35.929Z,191.07
2018-03-07T12:47:01.684Z,175.53
2018-03-07T12:49:27.394Z,191.73
2018-03-07T12:51:53.130Z,190.70
2018-03-07T12:54:18.867Z,169.40
2018-03-07T12:56:44.606Z,181.10
2018-03-07T12:59:10.331Z,178.63
2018-03-07T13:01:36.062Z,147.17
2018-03-07T13:04:01.792Z,162.43
2018-03-07T13:06:27.525Z,169.10
2018-03-07T13:08:53.241Z,178.77
2018-03-07T13:11:18.977Z,179.07
2018-03-07T13:13:44.712Z,149.73
2018-03-07T13:16:10.453Z,143.43
2018-03-07T13:18:36.174Z,141.63
2018-03-07T13:21:01.902Z,138.53
2018-03-07T13:23:27.626Z,148.43
2018-03-07T13:25:53.364Z,155.27
2018-03-07T13:28:19.084Z,146.47
2018-03-07T13:30:44.804Z,133.43
2018-03-07T13:33:10.539Z,167.60
2018-03-07T13:35:36.275Z,137.53
2018-03-07T13:38:02.026Z,132.97
2018-03-07T13:40:27.754Z,141.00
2018-03-07T13:42:53.493Z,140.13
2018-03-07T13:45:19.214Z,132.67
2018-03-07T13:47:44.952Z,116.37
2018-03-07T13:50:10.702Z,134.13
2018-03-07T13:52:40.955Z,116.63
2018-03-07T13:55:08.149Z,118.93
2018-03-07T13:57:33.895Z,116.40
2018-03-07T13:59:59.635Z,108.70
2018-03-07T14:02:25.377Z,104.83
2018-03-07T14:04:51.132Z,100.67
2018-03-07T14:07:16.881Z,100.33
2018-03-07T14:09:42.687Z,86.80
2018-03-07T14:12:08.449Z,75.17
2018-03-07T14:14:34.201Z,87.43
2018-03-07T14:16:59.947Z,76.17
2018-03-07T14:19:25.677Z,81.63
2018-03-07T14:21:51.393Z,73.07
2018-03-07T14:24:17.128Z,65.27
2018-03-07T14:26:42.846Z,77.27
2018-03-07T14:29:08.594Z,73.10
2018-03-07T14:31:34.305Z,75.47
2018-03-07T14:34:00.031Z,76.80
2018-03-07T14:36:25.758Z,80.83
2018-03-07T14:38:51.515Z,88.53
2018-03-07T14:41:17.219Z,89.73
2018-03-07T14:43:42.929Z,68.43
2018-03-07T14:46:08.629Z,89.73
2018-03-07T14:48:34.359Z,75.23
2018-03-07T14:51:00.080Z,75.33
2018-03-07T14:53:25.819Z,82.37
2018-03-07T14:55:51.534Z,84.53
2018-03-07T14:58:17.274Z,81.20
2018-03-07T15:00:42.994Z,80.47
2018-03-07T15:03:08.714Z,85.80
2018-03-07T15:05:34.425Z,89.70
2018-03-07T15:08:00.185Z,93.50
2018-03-07T15:10:25.925Z,90.90
2018-03-07T15:12:51.681Z,100.93
2018-03-07T15:15:17.410Z,98.90
2018-03-07T15:17:43.134Z,105.33
2018-03-07T15:20:08.863Z,94.13
2018-03-07T15:22:34.590Z,88.43
2018-03-07T15:25:00.322Z,95.90
2018-03-07T15:27:26.048Z,93.20
2018-03-07T15:29:51.767Z,93.33
2018-03-07T15:32:17.502Z,96.27
2018-03-07T15:34:43.262Z,93.13
2018-03-07T15:37:09.152Z,77.57
2018-03-07T15:39:34.929Z,91.70
2018-03-07T15:42:00.704Z,74.23
2018-03-07T15:44:26.431Z,75.10
2018-03-07T15:46:52.362Z,80.03
2018-03-07T15:49:18.121Z,94.47
2018-03-07T15:51:43.915Z,67.37
2018-03-07T15:54:10.507Z,75.40
2018-03-07T15:56:36.320Z,73.53
2018-03-07T15:59:02.266Z,83.90
2018-03-07T16:01:28.192Z,81.90
2018-03-07T16:03:54.015Z,75.67
2018-03-07T16:06:20.888Z,84.00
2018-03-07T16:08:49.026Z,74.37
2018-03-07T16:11:14.942Z,83.97
2018-03-07T16:13:40.690Z,77.23
2018-03-07T16:16:06.438Z,84.80
2018-03-07T16:18:32.162Z,85.20
2018-03-07T16:20:57.915Z,74.90
2018-03-07T16:23:23.678Z,108.87
2018-03-07T16:25:49.432Z,96.93
2018-03-07T16:28:15.174Z,96.30
2018-03-07T16:30:41.004Z,91.17
2018-03-07T16:33:06.698Z,84.23
2018-03-07T16:35:32.451Z,85.53
2018-03-07T16:37:58.183Z,93.80
2018-03-07T16:40:23.962Z,94.63
2018-03-07T16:42:49.702Z,92.83
2018-03-07T16:45:15.441Z,108.37
2018-03-07T16:47:41.206Z,93.57
2018-03-07T16:50:06.932Z,81.07
2018-03-07T16:52:39.726Z,92.07
2018-03-07T16:55:05.452Z,92.30
2018-03-07T16:57:31.183Z,99.90
2018-03-07T16:59:56.904Z,102.20
2018-03-07T17:02:22.627Z,90.27
2018-03-07T17:04:48.423Z,106.87
2018-03-07T17:07:14.151Z,109.80
2018-03-07T17:09:39.865Z,107.93
2018-03-07T17:12:05.594Z,105.17
2018-03-07T17:14:31.322Z,122.03
2018-03-07T17:16:57.059Z,111.70
2018-03-07T17:19:22.774Z,130.53
2018-03-07T17:21:48.494Z,114.77
2018-03-07T17:24:14.206Z,126.27
2018-03-07T17:26:39.945Z,102.77
2018-03-07T17:29:05.671Z,139.77
2018-03-07T17:31:31.405Z,108.10
2018-03-07T17:33:57.110Z,120.93
2018-03-07T17:36:22.889Z,145.07
2018-03-07T17:38:48.623Z,127.90
2018-03-07T17:41:14.410Z,114.20
2018-03-07T17:43:40.213Z,120.67
2018-03-07T17:46:05.917Z,130.80
2018-03-07T17:48:31.642Z,139.90
2018-03-07T17:50:57.357Z,160.77
2018-03-07T17:53:23.097Z,139.93
2018-03-07T17:55:48.809Z,141.27
2018-03-07T17:58:14.537Z,136.97
2018-03-07T18:00:40.270Z,140.30
2018-03-07T18:03:06.003Z,130.23
2018-03-07T18:05:31.749Z,136.90
2018-03-07T18:07:57.486Z,158.77
2018-03-07T18:10:23.211Z,129.50
2018-03-07T18:12:48.973Z,118.13
2018-03-07T18:15:14.794Z,134.07
2018-03-07T18:17:40.542Z,128.63
2018-03-07T18:20:06.288Z,140.93
2018-03-07T18:22:32.058Z,144.03
2018-03-07T18:24:58.507Z,142.97
2018-03-07T18:27:24.245Z,159.25
2018-03-07T18:29:49.978Z,145.13
2018-03-07T18:32:15.779Z,138.30
2018-03-07T18:34:41.508Z,159.20
2018-03-07T18:37:07.246Z,149.50
2018-03-07T18:39:33.084Z,163.67
2018-03-07T18:41:58.842Z,130.83
2018-03-07T18:44:24.565Z,196.93
2018-03-07T18:46:50.294Z,142.73
2018-03-07T18:49:16.046Z,130.87
2018-03-07T18:51:41.778Z,154.53
2018-03-07T18:54:07.515Z,169.63
2018-03-07T18:56:33.267Z,155.53
2018-03-07T18:58:59.054Z,168.10
2018-03-07T19:01:24.804Z,146.83
2018-03-07T19:03:50.592Z,145.87
2018-03-07T19:06:16.297Z,179.93
2018-03-07T19:08:42.069Z,225.67
2018-03-07T19:11:07.819Z,192.20
2018-03-07T19:13:33.586Z,195.33
2018-03-07T19:15:59.360Z,191.67
2018-03-07T19:18:25.107Z,215.77
2018-03-07T19:20:50.844Z,188.37
2018-03-07T19:23:16.590Z,229.27
2018-03-07T19:25:42.322Z,245.03
2018-03-07T19:28:08.048Z,215.87
2018-03-07T19:30:33.786Z,247.23
2018-03-07T19:32:59.518Z,230.33
2018-03-07T19:35:25.258Z,246.57
2018-03-07T19:37:51.023Z,252.27
2018-03-07T19:40:16.778Z,263.60
2018-03-07T19:42:42.510Z,277.47
2018-03-07T19:45:08.242Z,299.70
2018-03-07T19:47:33.974Z,287.10
2018-03-07T19:49:59.717Z,292.87
2018-03-07T19:52:25.450Z,270.90
2018-03-07T19:54:51.211Z,241.53
2018-03-07T19:57:16.921Z,306.73
2018-03-07T19:59:42.660Z,315.37
2018-03-07T20:02:08.402Z,304.67
2018-03-07T20:04:35.563Z,310.53
2018-03-07T20:07:01.711Z,267.95
2018-03-07T20:09:28.807Z,360.02
2018-03-07T20:11:54.742Z,287.10
2018-03-07T20:14:20.694Z,278.53
2018-03-07T20:16:46.425Z,315.13
2018-03-07T20:19:12.245Z,297.90
2018-03-07T20:21:39.445Z,357.13
2018-03-07T20:24:05.539Z,266.48
2018-03-07T20:26:31.293Z,312.95
2018-03-07T20:28:57.014Z,239.93
2018-03-07T20:31:22.801Z,291.53
2018-03-07T20:33:48.747Z,344.63
2018-03-07T20:36:14.538Z,323.47
2018-03-07T20:38:40.317Z,273.20
2018-03-07T20:41:06.890Z,289.00
2018-03-07T20:43:32.622Z,275.60
2018-03-07T20:45:58.350Z,215.03
2018-03-07T20:48:24.151Z,198.00
2018-03-07T20:50:49.928Z,207.13
2018-03-07T20:53:15.657Z,222.80
2018-03-07T20:55:41.380Z,240.03
2018-03-07T20:58:07.105Z,241.20
2018-03-07T21:00:33.004Z,247.90
2018-03-07T21:02:58.732Z,234.40
2018-03-07T21:05:24.441Z,239.87
2018-03-07T21:07:50.177Z,201.47
2018-03-07T21:10:15.903Z,219.50
2018-03-07T21:12:42.024Z,207.73
2018-03-07T21:15:08.148Z,221.02
2018-03-07T21:17:34.237Z,229.75
2018-03-07T21:20:00.325Z,232.30
2018-03-07T21:22:26.461Z,181.77
2018-03-07T21:24:52.230Z,208.23
2018-03-07T21:27:18.352Z,186.47
2018-03-07T21:29:44.115Z,198.45
2018-03-07T21:32:10.270Z,218.33
2018-03-07T21:34:35.998Z,164.68
2018-03-07T21:37:02.050Z,171.30
2018-03-07T21:39:27.794Z,195.62
2018-03-07T21:41:53.522Z,180.23
2018-03-07T21:44:19.650Z,166.20
2018-03-07T21:46:45.606Z,157.95
2018-03-07T21:49:11.359Z,185.30
2018-03-07T21:51:37.493Z,194.80
2018-03-07T21:54:03.446Z,149.23
2018-03-07T21:56:29.220Z,171.60
2018-03-07T21:58:55.337Z,163.43
2018-03-07T22:01:21.431Z,187.80
2018-03-07T22:03:47.194Z,186.60
2018-03-07T22:06:12.917Z,162.70
2018-03-07T22:08:38.656Z,190.93
2018-03-07T22:11:04.380Z,128.93
2018-03-07T22:13:30.641Z,133.67
2018-03-07T22:15:56.670Z,158.63
2018-03-07T22:18:22.710Z,199.18
2018-03-07T22:20:48.846Z,182.35
2018-03-07T22:23:14.674Z,208.60
2018-03-07T22:25:40.401Z,240.97
2018-03-07T22:28:06.159Z,250.63
2018-03-07T22:30:31.907Z,231.27
2018-03-07T22:32:57.650Z,222.93
2018-03-07T22:35:23.389Z,157.43
2018-03-07T22:37:49.157Z,146.80
2018-03-07T22:40:14.914Z,116.90
2018-03-07T22:42:40.641Z,148.60
2018-03-07T22:45:06.390Z,125.43
2018-03-07T22:47:32.134Z,135.13
2018-03-07T22:49:57.886Z,132.77
2018-03-07T22:52:23.624Z,145.00
2018-03-07T22:54:49.391Z,185.07
2018-03-07T22:57:15.137Z,151.00
2018-03-07T22:59:42.291Z,187.47
2018-03-07T23:02:08.045Z,171.62
2018-03-07T23:04:33.787Z,182.83
2018-03-07T23:06:59.517Z,176.53
2018-03-07T23:09:25.358Z,205.20
2018-03-07T23:11:51.084Z,205.27
2018-03-07T23:14:16.809Z,214.57
2018-03-07T23:16:42.543Z,176.47
2018-03-07T23:19:08.317Z,175.33
2018-03-07T23:21:34.061Z,198.00
2018-03-07T23:23:59.777Z,189.90
2018-03-07T23:26:25.506Z,202.03
2018-03-07T23:28:51.218Z,178.87
2018-03-07T23:31:17.559Z,205.33
2018-03-07T23:33:43.305Z,201.00
2018-03-07T23:36:09.030Z,200.03
2018-03-07T23:38:34.755Z,185.90
2018-03-07T23:41:00.550Z,186.30
2018-03-07T23:43:26.270Z,177.27
2018-03-07T23:45:51.996Z,194.43
2018-03-07T23:48:18.111Z,139.10
2018-03-07T23:50:43.861Z,197.75
2018-03-07T23:53:09.598Z,172.60
2018-03-07T23:55:35.326Z,222.10
2018-03-07T23:58:01.074Z,158.87
